createdAt,value
2017-03-11T00:00:31.094Z,0
2017-03-11T00:01:11.843Z,0
2017-03-11T00:01:52.514Z,0
2017-03-11T00:02:33.165Z,0
2017-03-11T00:03:13.893Z,0
2017-03-11T00:03:54.627Z,0
2017-03-11T00:04:35.326Z,0
2017-03-11T00:05:15.975Z,0
2017-03-11T00:05:56.606Z,0
2017-03-11T00:06:37.248Z,0
2017-03-11T00:07:18.013Z,0
2017-03-11T00:07:58.707Z,0
2017-03-11T00:08:39.335Z,0
2017-03-11T00:09:20.018Z,0
2017-03-11T00:10:00.647Z,0
2017-03-11T00:10:41.363Z,0
2017-03-11T00:11:21.934Z,0
2017-03-11T00:12:02.644Z,0
2017-03-11T00:12:43.283Z,0
2017-03-11T00:13:23.918Z,0
2017-03-11T00:14:04.586Z,0
2017-03-11T00:14:45.261Z,0
2017-03-11T00:15:25.934Z,0
2017-03-11T00:16:06.649Z,0
2017-03-11T00:16:47.267Z,0
2017-03-11T00:17:27.935Z,0
2017-03-11T00:18:08.706Z,0
2017-03-11T00:18:49.406Z,0
2017-03-11T00:19:30.304Z,0
2017-03-11T00:20:11.009Z,0
2017-03-11T00:20:51.875Z,0
2017-03-11T00:21:32.581Z,0
2017-03-11T00:22:13.231Z,0
2017-03-11T00:22:54.026Z,0
2017-03-11T00:23:34.744Z,0
2017-03-11T00:24:15.511Z,0
2017-03-11T00:24:56.304Z,0
2017-03-11T00:25:36.987Z,0
2017-03-11T00:26:17.736Z,0
2017-03-11T00:26:58.415Z,0
2017-03-11T00:27:39.189Z,0
2017-03-11T00:28:20.023Z,0
2017-03-11T00:29:00.645Z,0
2017-03-11T00:29:41.400Z,0
2017-03-11T00:30:22.077Z,0
2017-03-11T00:31:02.789Z,0
2017-03-11T00:31:43.370Z,0
2017-03-11T00:32:24.055Z,0
2017-03-11T00:33:04.880Z,0
2017-03-11T00:33:45.565Z,0
2017-03-11T00:34:26.285Z,0
2017-03-11T00:35:06.950Z,0
2017-03-11T00:35:47.601Z,0
2017-03-11T00:36:28.258Z,0
2017-03-11T00:37:09.002Z,0
2017-03-11T00:37:49.649Z,0
2017-03-11T00:38:30.319Z,0
2017-03-11T00:39:11.058Z,0
2017-03-11T00:39:51.707Z,0
2017-03-11T00:40:32.345Z,0
2017-03-11T00:41:13.044Z,0
2017-03-11T00:41:53.721Z,0
2017-03-11T00:42:34.409Z,0
2017-03-11T00:43:15.080Z,0
2017-03-11T00:43:55.719Z,0
2017-03-11T00:44:36.356Z,0
2017-03-11T00:45:17.103Z,0
2017-03-11T00:45:57.867Z,0
2017-03-11T00:46:38.517Z,0
2017-03-11T00:47:19.237Z,0
2017-03-11T00:47:59.932Z,0
2017-03-11T00:48:40.731Z,0
2017-03-11T00:49:21.348Z,0
2017-03-11T00:50:02.021Z,0
2017-03-11T00:50:42.705Z,0
2017-03-11T00:51:23.405Z,0
2017-03-11T00:52:04.066Z,0
2017-03-11T00:52:44.754Z,0
2017-03-11T00:53:25.499Z,0
2017-03-11T00:54:06.097Z,0
2017-03-11T00:54:46.757Z,0
2017-03-11T00:55:27.450Z,0
2017-03-11T00:56:08.062Z,0
2017-03-11T00:56:48.729Z,0
2017-03-11T00:57:29.401Z,0
2017-03-11T00:58:10.104Z,0
2017-03-11T00:58:50.787Z,0
2017-03-11T00:59:31.442Z,0
2017-03-11T01:00:12.176Z,0
2017-03-11T01:00:52.851Z,0
2017-03-11T01:01:33.592Z,0
2017-03-11T01:02:14.253Z,0
2017-03-11T01:02:54.914Z,0
2017-03-11T01:03:35.621Z,0
2017-03-11T01:04:16.296Z,0
2017-03-11T01:04:56.985Z,0
2017-03-11T01:05:37.624Z,0
2017-03-11T01:06:18.283Z,0
2017-03-11T01:06:59.003Z,0
2017-03-11T01:07:39.690Z,0
2017-03-11T01:08:20.361Z,0
2017-03-11T01:09:01.196Z,0
2017-03-11T01:09:41.866Z,0
2017-03-11T01:10:22.565Z,0
2017-03-11T01:11:03.344Z,0
2017-03-11T01:11:44.136Z,0
2017-03-11T01:12:24.934Z,0
2017-03-11T01:13:05.498Z,0
2017-03-11T01:13:46.193Z,0
2017-03-11T01:14:26.859Z,0
2017-03-11T01:15:07.609Z,0
2017-03-11T01:15:48.384Z,0
2017-03-11T01:16:28.994Z,0
2017-03-11T01:17:09.696Z,0
2017-03-11T01:17:50.338Z,0
2017-03-11T01:18:31.028Z,0
2017-03-11T01:19:11.825Z,0
2017-03-11T01:19:52.510Z,0
2017-03-11T01:20:33.194Z,0
2017-03-11T01:21:13.786Z,0
2017-03-11T01:21:54.449Z,0
2017-03-11T01:22:35.086Z,0
2017-03-11T01:23:15.913Z,0
2017-03-11T01:23:56.532Z,0
2017-03-11T01:24:37.304Z,0
2017-03-11T01:25:17.989Z,0
2017-03-11T01:25:58.665Z,0
2017-03-11T01:26:39.253Z,0
2017-03-11T01:27:20.085Z,0
2017-03-11T01:28:00.728Z,0
2017-03-11T01:28:41.396Z,0
2017-03-11T01:29:22.048Z,0
2017-03-11T01:30:02.818Z,0
2017-03-11T01:30:43.460Z,0
2017-03-11T01:31:24.151Z,0
2017-03-11T01:32:04.866Z,0
2017-03-11T01:32:45.516Z,0
2017-03-11T01:33:26.349Z,0
2017-03-11T01:34:06.994Z,0
2017-03-11T01:34:47.653Z,0
2017-03-11T01:35:28.475Z,0
2017-03-11T01:36:09.261Z,0
2017-03-11T01:36:49.905Z,0
2017-03-11T01:37:30.556Z,0
2017-03-11T01:38:11.260Z,0
2017-03-11T01:38:51.968Z,0
2017-03-11T01:39:32.626Z,0
2017-03-11T01:40:13.299Z,0
2017-03-11T01:40:53.966Z,0
2017-03-11T01:41:34.658Z,0
2017-03-11T01:42:15.339Z,0
2017-03-11T01:42:55.986Z,0
2017-03-11T01:43:36.638Z,0
2017-03-11T01:44:17.316Z,0
2017-03-11T01:44:57.972Z,0
2017-03-11T01:45:38.643Z,0
2017-03-11T01:46:19.286Z,0
2017-03-11T01:46:59.950Z,0
2017-03-11T01:47:40.756Z,0
2017-03-11T01:48:21.368Z,0
2017-03-11T01:49:02.018Z,0
2017-03-11T01:49:42.687Z,0
2017-03-11T01:50:23.432Z,0
2017-03-11T01:51:04.012Z,0
2017-03-11T01:51:44.648Z,0
2017-03-11T01:52:25.343Z,0
2017-03-11T01:53:06.100Z,0
2017-03-11T01:53:46.637Z,0
2017-03-11T01:54:27.307Z,0
2017-03-11T01:55:07.983Z,0
2017-03-11T01:55:48.687Z,0
2017-03-11T01:56:29.333Z,0
2017-03-11T01:57:09.970Z,0
2017-03-11T01:57:50.641Z,0
2017-03-11T01:58:31.381Z,0
2017-03-11T01:59:12.139Z,0
2017-03-11T01:59:52.789Z,0
2017-03-11T02:00:33.423Z,0
2017-03-11T02:01:14.083Z,0
2017-03-11T02:01:54.825Z,0
2017-03-11T02:02:35.441Z,0
2017-03-11T02:03:16.062Z,0
2017-03-11T02:03:56.676Z,0
2017-03-11T02:04:37.327Z,0
2017-03-11T02:05:17.961Z,0
2017-03-11T02:05:58.601Z,0
2017-03-11T02:06:39.292Z,0
2017-03-11T02:07:19.935Z,0
2017-03-11T02:08:00.644Z,0
2017-03-11T02:08:41.338Z,0
2017-03-11T02:09:21.975Z,0
2017-03-11T02:10:02.594Z,0
2017-03-11T02:10:43.249Z,0
2017-03-11T02:11:23.955Z,0
2017-03-11T02:12:04.648Z,0
2017-03-11T02:12:45.365Z,0
2017-03-11T02:13:26.101Z,0
2017-03-11T02:14:06.776Z,0
2017-03-11T02:14:47.425Z,0
2017-03-11T02:15:28.075Z,0
2017-03-11T02:16:08.734Z,0
2017-03-11T02:16:49.389Z,0
2017-03-11T02:17:29.996Z,0
2017-03-11T02:18:10.602Z,0
2017-03-11T02:18:51.243Z,0
2017-03-11T02:19:32.024Z,0
2017-03-11T02:20:12.737Z,0
2017-03-11T02:20:53.377Z,0
2017-03-11T02:21:34.014Z,0
2017-03-11T02:22:14.766Z,0
2017-03-11T02:22:55.359Z,0
2017-03-11T02:23:36.056Z,0
2017-03-11T02:24:16.737Z,0
2017-03-11T02:24:57.381Z,0
2017-03-11T02:25:38.056Z,0
2017-03-11T02:26:18.760Z,0
2017-03-11T02:26:59.448Z,0
2017-03-11T02:27:40.187Z,0
2017-03-11T02:28:20.846Z,0
2017-03-11T02:29:01.585Z,0
2017-03-11T02:29:42.182Z,0
2017-03-11T02:30:22.845Z,0
2017-03-11T02:31:03.489Z,0
2017-03-11T02:31:44.136Z,0
2017-03-11T02:32:24.746Z,0
2017-03-11T02:33:05.561Z,0
2017-03-11T02:33:46.196Z,0
2017-03-11T02:34:26.833Z,0
2017-03-11T02:35:07.411Z,0
2017-03-11T02:35:48.152Z,0
2017-03-11T02:36:28.809Z,0
2017-03-11T02:37:09.383Z,0
2017-03-11T02:37:50.003Z,0
2017-03-11T02:38:30.660Z,0
2017-03-11T02:39:11.352Z,0
2017-03-11T02:39:52.007Z,0
2017-03-11T02:40:32.630Z,0
2017-03-11T02:41:13.305Z,0
2017-03-11T02:41:53.912Z,0
2017-03-11T02:42:34.545Z,0
2017-03-11T02:43:15.228Z,0
2017-03-11T02:43:55.903Z,0
2017-03-11T02:44:36.543Z,0
2017-03-11T02:45:17.181Z,0
2017-03-11T02:45:57.857Z,0
2017-03-11T02:46:38.496Z,0
2017-03-11T02:47:19.156Z,0
2017-03-11T02:47:59.839Z,0
2017-03-11T02:48:40.501Z,0
2017-03-11T02:49:21.185Z,0
2017-03-11T02:50:01.847Z,0
2017-03-11T02:50:42.586Z,0
2017-03-11T02:51:23.207Z,0
2017-03-11T02:52:03.873Z,0
2017-03-11T02:52:44.585Z,0
2017-03-11T02:53:25.232Z,0
2017-03-11T02:54:05.915Z,0
2017-03-11T02:54:46.633Z,0
2017-03-11T02:55:27.368Z,0
2017-03-11T02:56:08.357Z,0
2017-03-11T02:56:49.033Z,0
2017-03-11T02:57:29.699Z,0
2017-03-11T02:58:10.513Z,0
2017-03-11T02:58:51.082Z,0
2017-03-11T02:59:31.745Z,0
2017-03-11T03:00:12.502Z,0
2017-03-11T03:00:53.150Z,0
2017-03-11T03:01:33.811Z,0
2017-03-11T03:02:14.548Z,0
2017-03-11T03:02:55.188Z,0
2017-03-11T03:03:35.826Z,0
2017-03-11T03:04:16.524Z,0
2017-03-11T03:04:57.269Z,0
2017-03-11T03:05:37.897Z,0
2017-03-11T03:06:18.614Z,0
2017-03-11T03:06:59.384Z,0
2017-03-11T03:07:40.153Z,0
2017-03-11T03:08:20.812Z,0
2017-03-11T03:09:01.452Z,0
2017-03-11T03:09:42.111Z,0
2017-03-11T03:10:22.729Z,0
2017-03-11T03:11:03.405Z,0
2017-03-11T03:11:44.075Z,0
2017-03-11T03:12:24.811Z,0
2017-03-11T03:13:05.441Z,0
2017-03-11T03:13:46.081Z,0
2017-03-11T03:14:26.745Z,0
2017-03-11T03:15:07.373Z,0
2017-03-11T03:15:48.031Z,0
2017-03-11T03:16:28.673Z,0
2017-03-11T03:17:09.308Z,0
2017-03-11T03:17:49.946Z,0
2017-03-11T03:18:30.611Z,0
2017-03-11T03:19:11.266Z,0
2017-03-11T03:19:51.896Z,0
2017-03-11T03:20:32.603Z,0
2017-03-11T03:21:13.266Z,0
2017-03-11T03:21:53.922Z,0
2017-03-11T03:22:34.657Z,0
2017-03-11T03:23:15.264Z,0
2017-03-11T03:23:56.249Z,0
2017-03-11T03:24:36.726Z,0
2017-03-11T03:25:17.411Z,0
2017-03-11T03:25:58.156Z,0
2017-03-11T03:26:38.819Z,0
2017-03-11T03:27:19.440Z,0
2017-03-11T03:28:00.112Z,0
2017-03-11T03:28:40.759Z,0
2017-03-11T03:29:21.410Z,0
2017-03-11T03:30:02.132Z,0
2017-03-11T03:30:42.730Z,0
2017-03-11T03:31:23.374Z,0
2017-03-11T03:32:04.041Z,0
2017-03-11T03:32:44.671Z,0
2017-03-11T03:33:25.341Z,0
2017-03-11T03:34:06.040Z,0
2017-03-11T03:34:46.850Z,0
2017-03-11T03:35:27.434Z,0
2017-03-11T03:36:08.090Z,0
2017-03-11T03:36:48.728Z,0
2017-03-11T03:37:29.407Z,0
2017-03-11T03:38:10.021Z,0
2017-03-11T03:38:50.678Z,0
2017-03-11T03:39:31.285Z,0
2017-03-11T03:40:11.907Z,0
2017-03-11T03:40:52.533Z,0
2017-03-11T03:41:33.196Z,0
2017-03-11T03:42:13.869Z,0
2017-03-11T03:42:54.544Z,0
2017-03-11T03:43:35.216Z,0
2017-03-11T03:44:15.890Z,0
2017-03-11T03:44:56.563Z,0
2017-03-11T03:45:37.242Z,0
2017-03-11T03:46:17.889Z,0
2017-03-11T03:46:58.640Z,0
2017-03-11T03:47:39.257Z,0
2017-03-11T03:48:19.949Z,0
2017-03-11T03:49:00.610Z,0
2017-03-11T03:49:41.236Z,0
2017-03-11T03:50:21.868Z,0
2017-03-11T03:51:02.545Z,0
2017-03-11T03:51:43.206Z,0
2017-03-11T03:52:23.867Z,0
2017-03-11T03:53:04.531Z,0
2017-03-11T03:53:45.248Z,0
2017-03-11T03:54:25.904Z,0
2017-03-11T03:55:06.593Z,0
2017-03-11T03:55:47.254Z,0
2017-03-11T03:56:27.894Z,0
2017-03-11T03:57:08.521Z,0
2017-03-11T03:57:49.221Z,0
2017-03-11T03:58:29.895Z,0
2017-03-11T03:59:10.509Z,0
2017-03-11T03:59:51.163Z,0
2017-03-11T04:00:31.814Z,0
2017-03-11T04:01:12.440Z,0
2017-03-11T04:01:53.129Z,0
2017-03-11T04:02:33.904Z,0
2017-03-11T04:03:14.535Z,0
2017-03-11T04:03:55.259Z,0
2017-03-11T04:04:35.911Z,0
2017-03-11T04:05:16.639Z,0
2017-03-11T04:05:57.350Z,0
2017-03-11T04:06:37.967Z,0
2017-03-11T04:07:18.646Z,0
2017-03-11T04:07:59.283Z,0
2017-03-11T04:08:40.046Z,0
2017-03-11T04:09:20.607Z,0
2017-03-11T04:10:01.289Z,0
2017-03-11T04:10:41.912Z,0
2017-03-11T04:11:22.580Z,0
2017-03-11T04:12:03.235Z,0
2017-03-11T04:12:43.886Z,0
2017-03-11T04:13:24.561Z,0
2017-03-11T04:14:05.206Z,0
2017-03-11T04:14:45.862Z,0
2017-03-11T04:15:26.510Z,0
2017-03-11T04:16:07.149Z,0
2017-03-11T04:16:47.817Z,0
2017-03-11T04:17:28.466Z,0
2017-03-11T04:18:09.119Z,0
2017-03-11T04:18:49.779Z,0
2017-03-11T04:19:30.483Z,0
2017-03-11T04:20:11.187Z,0
2017-03-11T04:20:51.848Z,0
2017-03-11T04:21:32.476Z,0
2017-03-11T04:22:13.122Z,0
2017-03-11T04:22:53.803Z,0
2017-03-11T04:23:34.438Z,0
2017-03-11T04:24:15.158Z,0
2017-03-11T04:24:55.745Z,0
2017-03-11T04:25:36.462Z,0
2017-03-11T04:26:17.246Z,0
2017-03-11T04:26:57.873Z,0
2017-03-11T04:27:38.534Z,0
2017-03-11T04:28:19.173Z,0
2017-03-11T04:28:59.823Z,0
2017-03-11T04:29:40.497Z,0
2017-03-11T04:30:21.272Z,0
2017-03-11T04:31:01.900Z,0
2017-03-11T04:31:42.547Z,0
2017-03-11T04:32:23.199Z,0
2017-03-11T04:33:03.846Z,0
2017-03-11T04:33:44.531Z,0
2017-03-11T04:34:25.193Z,0
2017-03-11T04:35:05.898Z,0
2017-03-11T04:35:46.541Z,0
2017-03-11T04:36:27.162Z,0
2017-03-11T04:37:07.831Z,0
2017-03-11T04:37:48.487Z,0
2017-03-11T04:38:29.214Z,0
2017-03-11T04:39:09.865Z,0
2017-03-11T04:39:50.566Z,0
2017-03-11T04:40:31.198Z,0
2017-03-11T04:41:11.846Z,0
2017-03-11T04:41:52.470Z,0
2017-03-11T04:42:33.172Z,0
2017-03-11T04:43:13.807Z,0
2017-03-11T04:43:54.492Z,0
2017-03-11T04:44:35.130Z,0
2017-03-11T04:45:15.770Z,0
2017-03-11T04:45:56.419Z,0
2017-03-11T04:46:37.055Z,0
2017-03-11T04:47:17.783Z,0
2017-03-11T04:47:58.375Z,0
2017-03-11T04:48:39.072Z,0
2017-03-11T04:49:19.770Z,0
2017-03-11T04:50:00.437Z,0
2017-03-11T04:50:41.136Z,0
2017-03-11T04:51:21.810Z,0
2017-03-11T04:52:02.509Z,0
2017-03-11T04:52:43.127Z,0
2017-03-11T04:53:23.773Z,0
2017-03-11T04:54:04.521Z,0
2017-03-11T04:54:45.234Z,0
2017-03-11T04:55:25.872Z,0
2017-03-11T04:56:06.528Z,0
2017-03-11T04:56:47.189Z,0
2017-03-11T04:57:27.838Z,0
2017-03-11T04:58:08.525Z,0
2017-03-11T04:58:49.208Z,0
2017-03-11T04:59:29.844Z,0
2017-03-11T05:00:10.522Z,0
2017-03-11T05:00:51.177Z,0
2017-03-11T05:01:31.937Z,0
2017-03-11T05:02:12.535Z,0
2017-03-11T05:02:53.255Z,0
2017-03-11T05:03:33.883Z,0
2017-03-11T05:04:14.653Z,0
2017-03-11T05:04:55.203Z,0
2017-03-11T05:05:35.856Z,0
2017-03-11T05:06:16.490Z,0
2017-03-11T05:06:57.115Z,0
2017-03-11T05:07:37.832Z,0
2017-03-11T05:08:18.507Z,0
2017-03-11T05:08:59.188Z,0
2017-03-11T05:09:39.822Z,0
2017-03-11T05:10:20.548Z,0
2017-03-11T05:11:01.213Z,0
2017-03-11T05:11:41.853Z,0
2017-03-11T05:12:22.518Z,0
2017-03-11T05:13:03.190Z,0
2017-03-11T05:13:43.885Z,0
2017-03-11T05:14:24.479Z,0
2017-03-11T05:15:05.173Z,0
2017-03-11T05:15:45.789Z,0
2017-03-11T05:16:26.438Z,0
2017-03-11T05:17:07.104Z,0
2017-03-11T05:17:47.750Z,0
2017-03-11T05:18:28.447Z,0
2017-03-11T05:19:09.091Z,0
2017-03-11T05:19:49.820Z,0
2017-03-11T05:20:30.456Z,0
2017-03-11T05:21:11.121Z,0
2017-03-11T05:21:51.747Z,0
2017-03-11T05:22:32.383Z,0
2017-03-11T05:23:13.070Z,0
2017-03-11T05:23:53.719Z,0
2017-03-11T05:24:34.336Z,0
2017-03-11T05:25:15.003Z,0
2017-03-11T05:25:55.651Z,0
2017-03-11T05:26:36.278Z,0
2017-03-11T05:27:16.956Z,0
2017-03-11T05:27:57.603Z,0
2017-03-11T05:28:38.221Z,0
2017-03-11T05:29:18.880Z,0
2017-03-11T05:29:59.512Z,0
2017-03-11T05:30:40.150Z,0
2017-03-11T05:31:20.800Z,0
2017-03-11T05:32:01.437Z,0
2017-03-11T05:32:42.100Z,0
2017-03-11T05:33:22.755Z,0
2017-03-11T05:34:03.420Z,0
2017-03-11T05:34:44.069Z,0
2017-03-11T05:35:24.735Z,0
2017-03-11T05:36:05.381Z,0
2017-03-11T05:36:46.035Z,0
2017-03-11T05:37:26.681Z,0
2017-03-11T05:38:07.313Z,0
2017-03-11T05:38:47.939Z,0
2017-03-11T05:39:28.591Z,0
2017-03-11T05:40:09.235Z,0
2017-03-11T05:40:49.878Z,0
2017-03-11T05:41:30.537Z,0
2017-03-11T05:42:11.200Z,0
2017-03-11T05:42:51.838Z,0
2017-03-11T05:43:32.499Z,0
2017-03-11T05:44:13.144Z,0
2017-03-11T05:44:53.838Z,0
2017-03-11T05:45:34.516Z,0
2017-03-11T05:46:15.143Z,0
2017-03-11T05:46:55.764Z,5
2017-03-11T05:47:36.478Z,5
2017-03-11T05:48:17.149Z,5
2017-03-11T05:48:57.773Z,5
2017-03-11T05:49:38.432Z,5
2017-03-11T05:50:19.082Z,5
2017-03-11T05:50:59.690Z,5
2017-03-11T05:51:40.346Z,5
2017-03-11T05:52:20.977Z,5
2017-03-11T05:53:01.600Z,5
2017-03-11T05:53:42.229Z,5
2017-03-11T05:54:22.858Z,5
2017-03-11T05:55:03.509Z,5
2017-03-11T05:55:44.143Z,5
2017-03-11T05:56:24.943Z,5
2017-03-11T05:57:05.956Z,5
2017-03-11T05:57:56.722Z,5
2017-03-11T05:58:44.927Z,5
2017-03-11T05:59:33.089Z,5
2017-03-11T06:00:16.845Z,5
2017-03-11T06:01:08.051Z,5
2017-03-11T06:02:07.018Z,5
2017-03-11T06:02:53.382Z,5
2017-03-11T06:03:36.651Z,10
2017-03-11T06:04:17.344Z,10
2017-03-11T06:04:57.966Z,10
2017-03-11T06:05:39.071Z,10
2017-03-11T06:06:19.708Z,10
2017-03-11T06:07:00.988Z,10
2017-03-11T06:07:41.597Z,10
2017-03-11T06:08:22.307Z,10
2017-03-11T06:09:03.162Z,10
2017-03-11T06:09:43.825Z,10
2017-03-11T06:10:24.709Z,10
2017-03-11T06:11:05.570Z,10
2017-03-11T06:11:46.325Z,10
2017-03-11T06:12:27.378Z,10
2017-03-11T06:13:08.316Z,10
2017-03-11T06:13:50.933Z,10
2017-03-11T06:14:46.528Z,10
2017-03-11T06:15:28.107Z,10
2017-03-11T06:16:09.065Z,10
2017-03-11T06:16:50.071Z,10
2017-03-11T06:17:30.766Z,10
2017-03-11T06:18:11.441Z,15
2017-03-11T06:18:52.113Z,15
2017-03-11T06:19:36.877Z,15
2017-03-11T06:20:19.767Z,15
2017-03-11T06:21:02.220Z,15
2017-03-11T06:21:50.281Z,15
2017-03-11T06:22:31.016Z,15
2017-03-11T06:23:11.775Z,15
2017-03-11T06:23:52.447Z,15
2017-03-11T06:24:33.139Z,15
2017-03-11T06:25:13.779Z,15
2017-03-11T06:25:54.567Z,15
2017-03-11T06:26:35.216Z,15
2017-03-11T06:27:16.216Z,15
2017-03-11T06:27:56.895Z,15
2017-03-11T06:28:38.263Z,15
2017-03-11T06:29:28.747Z,15
2017-03-11T06:30:21.132Z,15
2017-03-11T06:31:13.770Z,15
2017-03-11T06:32:05.991Z,15
2017-03-11T06:32:52.025Z,15
2017-03-11T06:33:36.052Z,20
2017-03-11T06:34:16.673Z,20
2017-03-11T06:34:57.324Z,20
2017-03-11T06:35:37.928Z,20
2017-03-11T06:36:18.560Z,20
2017-03-11T06:36:59.174Z,20
2017-03-11T06:37:40.293Z,20
2017-03-11T06:38:22.669Z,20
2017-03-11T06:39:05.547Z,20
2017-03-11T06:39:46.162Z,25
2017-03-11T06:40:26.787Z,25
2017-03-11T06:41:07.440Z,25
2017-03-11T06:41:48.070Z,25
2017-03-11T06:42:29.455Z,25
2017-03-11T06:43:10.070Z,25
2017-03-11T06:43:50.723Z,25
2017-03-11T06:44:31.329Z,25
2017-03-11T06:45:11.924Z,25
2017-03-11T06:45:52.544Z,25
2017-03-11T06:46:33.185Z,25
2017-03-11T06:47:13.786Z,25
2017-03-11T06:47:54.395Z,30
2017-03-11T06:48:35.091Z,30
2017-03-11T06:49:15.734Z,30
2017-03-11T06:49:56.343Z,30
2017-03-11T06:50:36.954Z,35
2017-03-11T06:51:17.604Z,35
2017-03-11T06:51:58.221Z,35
2017-03-11T06:52:38.874Z,35
2017-03-11T06:53:19.547Z,35
2017-03-11T06:54:00.218Z,35
2017-03-11T06:54:41.894Z,35
2017-03-11T06:55:22.537Z,35
2017-03-11T06:56:03.218Z,40
2017-03-11T06:56:43.860Z,40
2017-03-11T06:57:24.479Z,40
2017-03-11T06:58:05.085Z,40
2017-03-11T06:58:45.770Z,40
2017-03-11T06:59:26.386Z,40
2017-03-11T07:00:07.037Z,40
2017-03-11T07:00:47.645Z,40
2017-03-11T07:01:28.280Z,40
2017-03-11T07:02:09.119Z,40
2017-03-11T07:02:49.726Z,40
2017-03-11T07:03:30.423Z,40
2017-03-11T07:04:11.097Z,40
2017-03-11T07:04:51.772Z,45
2017-03-11T07:05:32.400Z,45
2017-03-11T07:06:13.036Z,45
2017-03-11T07:06:53.654Z,45
2017-03-11T07:07:34.266Z,45
2017-03-11T07:08:14.868Z,45
2017-03-11T07:08:55.505Z,45
2017-03-11T07:09:36.426Z,45
2017-03-11T07:10:17.097Z,45
2017-03-11T07:10:57.906Z,45
2017-03-11T07:11:38.941Z,45
2017-03-11T07:12:19.776Z,45
2017-03-11T07:13:00.432Z,45
2017-03-11T07:13:41.191Z,45
2017-03-11T07:14:22.399Z,45
2017-03-11T07:15:03.253Z,45
2017-03-11T07:15:44.234Z,45
2017-03-11T07:16:25.012Z,45
2017-03-11T07:17:05.620Z,45
2017-03-11T07:17:46.244Z,45
2017-03-11T07:18:26.958Z,45
2017-03-11T07:19:09.343Z,45
2017-03-11T07:19:51.033Z,45
2017-03-11T07:20:37.010Z,40
2017-03-11T07:21:20.714Z,40
2017-03-11T07:22:12.668Z,40
2017-03-11T07:22:57.993Z,40
2017-03-11T07:23:39.283Z,45
2017-03-11T07:24:20.528Z,45
2017-03-11T07:25:01.180Z,45
2017-03-11T07:25:41.829Z,50
2017-03-11T07:26:24.026Z,50
2017-03-11T07:27:10.253Z,50
2017-03-11T07:27:50.920Z,55
2017-03-11T07:28:31.630Z,60
2017-03-11T07:29:12.266Z,60
2017-03-11T07:29:52.894Z,60
2017-03-11T07:30:33.524Z,60
2017-03-11T07:31:14.171Z,60
2017-03-11T07:31:54.881Z,60
2017-03-11T07:32:35.566Z,60
2017-03-11T07:33:16.204Z,60
2017-03-11T07:33:56.887Z,65
2017-03-11T07:34:37.630Z,65
2017-03-11T07:35:18.263Z,65
2017-03-11T07:35:58.911Z,65
2017-03-11T07:36:39.670Z,65
2017-03-11T07:37:20.358Z,70
2017-03-11T07:38:00.967Z,70
2017-03-11T07:38:41.618Z,70
2017-03-11T07:39:22.320Z,65
2017-03-11T07:40:02.967Z,65
2017-03-11T07:40:43.670Z,70
2017-03-11T07:41:24.365Z,70
2017-03-11T07:42:05.057Z,70
2017-03-11T07:42:45.791Z,70
2017-03-11T07:43:26.425Z,70
2017-03-11T07:44:07.168Z,70
2017-03-11T07:44:47.853Z,70
2017-03-11T07:45:28.498Z,70
2017-03-11T07:46:09.201Z,70
2017-03-11T07:46:49.963Z,70
2017-03-11T07:47:30.683Z,70
2017-03-11T07:48:11.398Z,70
2017-03-11T07:48:52.039Z,70
2017-03-11T07:49:32.728Z,70
2017-03-11T07:50:13.349Z,70
2017-03-11T07:50:54.026Z,70
2017-03-11T07:51:34.778Z,75
2017-03-11T07:52:15.427Z,75
2017-03-11T07:52:56.215Z,75
2017-03-11T07:53:36.824Z,80
2017-03-11T07:54:17.494Z,80
2017-03-11T07:54:58.176Z,80
2017-03-11T07:55:39.002Z,85
2017-03-11T07:56:19.752Z,90
2017-03-11T07:57:00.365Z,90
2017-03-11T07:57:41.124Z,95
2017-03-11T07:58:21.859Z,100
2017-03-11T07:59:02.562Z,105
2017-03-11T07:59:43.227Z,110
2017-03-11T08:00:23.922Z,125
2017-03-11T08:01:04.613Z,115
2017-03-11T08:01:45.306Z,120
2017-03-11T08:02:26.083Z,125
2017-03-11T08:03:06.743Z,140
2017-03-11T08:03:47.613Z,130
2017-03-11T08:04:28.431Z,135
2017-03-11T08:05:11.082Z,140
2017-03-11T08:05:54.428Z,150
2017-03-11T08:06:35.133Z,155
2017-03-11T08:07:15.770Z,160
2017-03-11T08:07:56.629Z,170
2017-03-11T08:08:37.252Z,175
2017-03-11T08:09:17.920Z,185
2017-03-11T08:09:59.247Z,170
2017-03-11T08:10:41.027Z,160
2017-03-11T08:11:23.555Z,155
2017-03-11T08:12:05.266Z,155
2017-03-11T08:12:45.935Z,155
2017-03-11T08:13:26.585Z,160
2017-03-11T08:14:07.233Z,155
2017-03-11T08:14:47.959Z,160
2017-03-11T08:15:29.036Z,165
2017-03-11T08:16:09.899Z,150
2017-03-11T08:16:54.200Z,135
2017-03-11T08:17:34.857Z,125
2017-03-11T08:18:15.582Z,115
2017-03-11T08:18:56.236Z,110
2017-03-11T08:19:36.912Z,110
2017-03-11T08:20:17.602Z,110
2017-03-11T08:20:58.446Z,105
2017-03-11T08:21:39.155Z,105
2017-03-11T08:22:19.852Z,105
2017-03-11T08:23:00.515Z,105
2017-03-11T08:23:41.213Z,110
2017-03-11T08:24:21.885Z,105
2017-03-11T08:25:02.577Z,105
2017-03-11T08:25:43.127Z,105
2017-03-11T08:26:23.718Z,105
2017-03-11T08:27:04.333Z,105
2017-03-11T08:27:44.926Z,105
2017-03-11T08:28:25.531Z,105
2017-03-11T08:29:06.115Z,105
2017-03-11T08:29:46.733Z,100
2017-03-11T08:30:27.385Z,100
2017-03-11T08:31:08.007Z,100
2017-03-11T08:31:48.614Z,100
2017-03-11T08:32:29.310Z,100
2017-03-11T08:33:09.940Z,105
2017-03-11T08:33:50.584Z,105
2017-03-11T08:34:31.198Z,110
2017-03-11T08:35:11.791Z,115
2017-03-11T08:35:52.410Z,115
2017-03-11T08:36:32.992Z,115
2017-03-11T08:37:13.624Z,120
2017-03-11T08:37:54.299Z,125
2017-03-11T08:38:34.979Z,125
2017-03-11T08:39:15.596Z,130
2017-03-11T08:39:56.218Z,130
2017-03-11T08:40:36.815Z,130
2017-03-11T08:41:17.441Z,130
2017-03-11T08:41:58.080Z,130
2017-03-11T08:42:38.730Z,130
2017-03-11T08:43:19.354Z,130
2017-03-11T08:43:59.967Z,125
2017-03-11T08:44:40.592Z,130
2017-03-11T08:45:21.267Z,130
2017-03-11T08:46:01.885Z,130
2017-03-11T08:46:42.481Z,130
2017-03-11T08:47:23.067Z,135
2017-03-11T08:48:03.889Z,135
2017-03-11T08:48:44.501Z,135
2017-03-11T08:49:25.170Z,140
2017-03-11T08:50:05.826Z,140
2017-03-11T08:50:46.433Z,140
2017-03-11T08:51:27.168Z,145
2017-03-11T08:52:07.895Z,145
2017-03-11T08:52:48.477Z,150
2017-03-11T08:53:29.067Z,155
2017-03-11T08:54:09.666Z,160
2017-03-11T08:54:50.320Z,165
2017-03-11T08:55:30.887Z,165
2017-03-11T08:56:11.482Z,175
2017-03-11T08:56:52.055Z,180
2017-03-11T08:57:32.683Z,185
2017-03-11T08:58:13.393Z,190
2017-03-11T08:58:53.967Z,190
2017-03-11T08:59:34.547Z,200
2017-03-11T09:00:15.147Z,195
2017-03-11T09:00:55.738Z,190
2017-03-11T09:01:36.361Z,190
2017-03-11T09:02:17.011Z,185
2017-03-11T09:02:57.607Z,180
2017-03-11T09:03:38.235Z,175
2017-03-11T09:04:18.812Z,170
2017-03-11T09:04:59.403Z,170
2017-03-11T09:05:40.115Z,165
2017-03-11T09:06:20.705Z,165
2017-03-11T09:07:01.312Z,165
2017-03-11T09:07:41.907Z,160
2017-03-11T09:08:22.527Z,160
2017-03-11T09:09:03.143Z,155
2017-03-11T09:09:43.796Z,155
2017-03-11T09:10:24.402Z,150
2017-03-11T09:11:05.040Z,150
2017-03-11T09:11:45.638Z,150
2017-03-11T09:12:26.341Z,150
2017-03-11T09:13:06.946Z,150
2017-03-11T09:13:47.596Z,150
2017-03-11T09:14:28.241Z,145
2017-03-11T09:15:08.868Z,145
2017-03-11T09:15:49.468Z,145
2017-03-11T09:16:30.102Z,145
2017-03-11T09:17:10.706Z,145
2017-03-11T09:17:51.315Z,145
2017-03-11T09:18:31.923Z,145
2017-03-11T09:19:12.566Z,145
2017-03-11T09:19:53.192Z,145
2017-03-11T09:20:33.825Z,140
2017-03-11T09:21:14.403Z,140
2017-03-11T09:21:55.037Z,140
2017-03-11T09:22:35.695Z,135
2017-03-11T09:23:16.325Z,130
2017-03-11T09:23:57.021Z,130
2017-03-11T09:24:37.600Z,130
2017-03-11T09:25:18.197Z,125
2017-03-11T09:25:58.804Z,125
2017-03-11T09:26:39.439Z,130
2017-03-11T09:27:20.042Z,125
2017-03-11T09:28:00.644Z,125
2017-03-11T09:28:41.256Z,125
2017-03-11T09:29:21.872Z,120
2017-03-11T09:30:02.502Z,120
2017-03-11T09:30:43.122Z,120
2017-03-11T09:31:23.770Z,120
2017-03-11T09:32:04.359Z,120
2017-03-11T09:32:44.973Z,120
2017-03-11T09:33:25.681Z,120
2017-03-11T09:34:06.263Z,120
2017-03-11T09:34:46.874Z,120
2017-03-11T09:35:27.524Z,120
2017-03-11T09:36:08.144Z,115
2017-03-11T09:36:48.778Z,115
2017-03-11T09:37:29.991Z,115
2017-03-11T09:38:11.253Z,115
2017-03-11T09:38:51.875Z,110
2017-03-11T09:39:32.485Z,110
2017-03-11T09:40:13.104Z,110
2017-03-11T09:40:54.420Z,110
2017-03-11T09:41:35.104Z,110
2017-03-11T09:42:15.682Z,110
2017-03-11T09:42:56.345Z,105
2017-03-11T09:43:37.090Z,105
2017-03-11T09:44:17.644Z,105
2017-03-11T09:44:58.429Z,110
2017-03-11T09:45:39.579Z,110
2017-03-11T09:46:20.164Z,110
2017-03-11T09:47:00.819Z,110
2017-03-11T09:47:41.511Z,110
2017-03-11T09:48:22.370Z,110
2017-03-11T09:49:02.973Z,115
2017-03-11T09:49:43.593Z,110
2017-03-11T09:50:24.237Z,110
2017-03-11T09:51:04.825Z,115
2017-03-11T09:51:45.463Z,115
2017-03-11T09:52:26.077Z,125